Time;durP1;ratioP1;P1;durP2;ratioP2;P2;SDS_P1;SDS_P2;PMS_P1;PMS_P2;Temp;Humidity;BMP_temperature;BMP_pressure;BME280_temperature;BME280_humidity;BME280_pressure;Samples;Min_cycle;Max_cycle;Signal;HPM_P1;HPM_P2
2021/04/27 00:01:15;;;;;;;7.20;3.83;;;5.80;99.90;;;;;;5082825;28;20220;-75
2021/04/27 00:03:41;;;;;;;6.07;4.10;;;5.70;99.90;;;;;;5081808;28;20204;-75
2021/04/27 00:06:08;;;;;;;6.80;4.17;;;5.70;99.90;;;;;;5081797;28;20205;-77
2021/04/27 00:08:34;;;;;;;6.53;5.03;;;5.60;99.90;;;;;;5081695;28;20580;-76
2021/04/27 00:11:01;;;;;;;4.40;3.77;;;5.60;99.90;;;;;;5082382;28;20219;-77
2021/04/27 00:13:28;;;;;;;8.63;4.67;;;5.60;99.90;;;;;;5081920;28;20205;-77
2021/04/27 00:15:55;;;;;;;7.00;4.30;;;5.60;99.90;;;;;;5097096;28;20232;-75
2021/04/27 00:18:21;;;;;;;6.90;4.07;;;5.60;99.90;;;;;;5102428;28;20195;-74
2021/04/27 00:20:47;;;;;;;8.03;4.57;;;5.60;99.90;;;;;;5101926;28;20192;-75
2021/04/27 00:23:14;;;;;;;6.23;4.20;;;5.60;99.90;;;;;;5102248;28;20211;-76
2021/04/27 00:25:40;;;;;;;8.03;4.20;;;5.50;99.90;;;;;;5087375;28;20293;-75
2021/04/27 00:28:07;;;;;;;8.00;4.37;;;5.50;99.90;;;;;;5081990;28;20204;-76
2021/04/27 00:30:34;;;;;;;8.00;4.47;;;5.60;99.90;;;;;;5081580;28;21023;-76
2021/04/27 00:33:00;;;;;;;8.67;4.40;;;5.60;99.90;;;;;;5088485;28;20200;-76
2021/04/27 00:35:27;;;;;;;6.50;3.83;;;5.60;99.90;;;;;;5101441;28;20269;-76
2021/04/27 00:37:53;;;;;;;8.63;4.23;;;5.60;99.90;;;;;;5102983;28;20203;-76
2021/04/27 00:40:20;;;;;;;8.40;3.83;;;5.60;99.90;;;;;;5102529;28;20260;-75
2021/04/27 00:42:47;;;;;;;7.77;3.63;;;5.70;99.90;;;;;;5092637;28;20232;-76
2021/04/27 00:45:18;;;;;;;5.30;4.07;;;5.70;99.90;;;;;;5082786;28;20197;-77
2021/04/27 00:47:45;;;;;;;4.80;3.50;;;5.70;99.90;;;;;;5082369;28;20211;-74
2021/04/27 00:50:14;;;;;;;6.87;3.50;;;5.80;99.90;;;;;;5081653;28;20204;-74
2021/04/27 00:52:42;;;;;;;6.30;3.80;;;5.70;99.90;;;;;;5082055;28;20217;-75
2021/04/27 00:55:10;;;;;;;7.30;3.97;;;5.80;99.90;;;;;;5081469;28;20282;-76
2021/04/27 00:57:36;;;;;;;6.77;3.40;;;5.80;99.90;;;;;;5081976;28;20208;-74
2021/04/27 01:00:05;;;;;;;5.27;3.83;;;5.80;99.90;;;;;;5081937;28;20637;-74
2021/04/27 01:02:33;;;;;;;6.60;3.60;;;5.80;99.90;;;;;;5080643;28;20201;-74
2021/04/27 01:04:59;;;;;;;6.20;4.03;;;5.80;99.90;;;;;;5082177;28;20236;-75
2021/04/27 01:07:30;;;;;;;5.83;3.50;;;5.80;99.90;;;;;;5081847;28;20208;-76
2021/04/27 01:10:01;;;;;;;6.10;3.67;;;5.70;99.90;;;;;;5080579;28;20211;-75
2021/04/27 01:12:31;;;;;;;4.00;3.40;;;5.70;99.90;;;;;;5081417;28;20181;-75
2021/04/27 01:15:04;;;;;;;5.43;3.60;;;5.70;99.90;;;;;;5080964;28;20760;-74
2021/04/27 01:17:32;;;;;;;5.87;3.60;;;5.60;99.90;;;;;;5081406;28;20552;-75
2021/04/27 01:20:06;;;;;;;4.60;3.50;;;5.70;99.90;;;;;;5081791;28;20208;-75
2021/04/27 01:22:52;;;;;;;5.80;3.80;;;5.70;99.90;;;;;;5082033;28;20273;-74
2021/04/27 01:25:26;;;;;;;6.17;3.83;;;5.60;99.90;;;;;;5080857;28;20301;-75
2021/04/27 01:27:54;;;;;;;6.97;3.93;;;5.60;99.90;;;;;;5080926;28;20569;-75
2021/04/27 01:30:21;;;;;;;8.33;4.13;;;5.50;99.90;;;;;;5080185;28;20196;-76
2021/04/27 01:32:48;;;;;;;7.07;4.47;;;5.60;99.90;;;;;;5081778;28;20208;-76
2021/04/27 01:35:15;;;;;;;5.70;3.83;;;5.60;99.90;;;;;;5082008;28;20232;-75
2021/04/27 01:37:41;;;;;;;8.83;4.30;;;5.60;99.90;;;;;;5084351;28;20208;-74
2021/04/27 01:40:09;;;;;;;9.97;4.10;;;5.50;99.90;;;;;;5085180;28;20200;-74
2021/04/27 01:42:36;;;;;;;9.70;4.53;;;5.40;99.90;;;;;;5084756;28;20644;-75
2021/04/27 01:45:04;;;;;;;5.43;3.87;;;5.40;99.90;;;;;;5084803;28;20205;-75
2021/04/27 01:47:31;;;;;;;6.37;3.90;;;5.40;99.90;;;;;;5085261;28;20207;-74
2021/04/27 01:49:57;;;;;;;7.97;4.60;;;5.40;99.90;;;;;;5085517;28;20197;-75
2021/04/27 01:52:24;;;;;;;7.10;3.87;;;5.40;99.90;;;;;;5083941;28;20262;-75
2021/04/27 01:54:50;;;;;;;9.03;4.50;;;5.30;99.90;;;;;;5083574;28;21454;-75
2021/04/27 01:57:18;;;;;;;4.63;3.67;;;5.30;99.90;;;;;;5084966;28;20211;-74
2021/04/27 01:59:44;;;;;;;7.13;4.33;;;5.30;99.90;;;;;;5084441;28;20204;-74
2021/04/27 02:02:12;;;;;;;6.87;4.37;;;5.30;99.90;;;;;;5084807;28;20193;-75
2021/04/27 02:04:38;;;;;;;5.50;3.77;;;5.30;99.90;;;;;;5086137;28;20525;-75
2021/04/27 02:07:04;;;;;;;8.90;4.43;;;5.30;99.90;;;;;;5105492;28;20203;-74
2021/04/27 02:09:31;;;;;;;5.43;3.77;;;5.30;99.90;;;;;;5104909;28;20219;-74
2021/04/27 02:11:59;;;;;;;9.67;6.03;;;5.20;99.90;;;;;;5084730;28;20211;-75
2021/04/27 02:14:27;;;;;;;6.17;4.40;;;5.20;99.90;;;;;;5083587;28;20916;-76
2021/04/27 02:16:59;;;;;;;6.93;4.47;;;5.20;99.90;;;;;;5083722;28;20785;-74
2021/04/27 02:19:29;;;;;;;6.57;4.27;;;5.20;99.90;;;;;;5084054;28;20254;-74
2021/04/27 02:22:00;;;;;;;6.00;4.47;;;5.20;99.90;;;;;;5084296;28;20208;-74
2021/04/27 02:24:27;;;;;;;5.80;4.50;;;5.30;99.90;;;;;;5086649;28;20204;-74
2021/04/27 02:26:54;;;;;;;8.77;4.93;;;5.30;99.90;;;;;;5104115;28;20357;-75
2021/04/27 02:29:22;;;;;;;5.23;4.63;;;5.30;99.90;;;;;;5104740;28;20301;-74
2021/04/27 02:31:49;;;;;;;8.00;4.80;;;5.30;99.90;;;;;;5104869;28;20199;-75
2021/04/27 02:34:20;;;;;;;7.83;4.00;;;5.30;99.90;;;;;;5087604;28;20208;-74
2021/04/27 02:36:48;;;;;;;5.97;4.00;;;5.30;99.90;;;;;;5084193;28;20235;-74
2021/04/27 02:39:14;;;;;;;5.73;4.27;;;5.30;99.90;;;;;;5083919;28;20605;-75
2021/04/27 02:41:41;;;;;;;8.33;4.50;;;5.30;99.90;;;;;;5083445;28;20200;-76
2021/04/27 02:44:08;;;;;;;6.47;4.30;;;5.30;99.90;;;;;;5083770;28;20270;-77
2021/04/27 02:46:34;;;;;;;8.17;4.17;;;5.30;99.90;;;;;;5083448;28;20590;-75
2021/04/27 02:49:01;;;;;;;9.23;4.47;;;5.30;99.90;;;;;;5082849;28;20200;-74
2021/04/27 02:51:27;;;;;;;5.33;4.23;;;5.30;99.90;;;;;;5083582;28;20207;-75
2021/04/27 02:53:54;;;;;;;7.80;4.63;;;5.30;99.90;;;;;;5083873;28;20212;-76
2021/04/27 02:56:21;;;;;;;7.03;5.43;;;5.40;99.90;;;;;;5082779;28;20228;-75
2021/04/27 02:58:47;;;;;;;6.33;4.53;;;5.30;99.90;;;;;;5083378;28;20631;-74
2021/04/27 03:01:14;;;;;;;7.70;5.37;;;5.40;99.90;;;;;;5083673;28;20205;-74
2021/04/27 03:03:40;;;;;;;5.53;4.27;;;5.40;99.90;;;;;;5082685;28;20222;-73
2021/04/27 03:06:07;;;;;;;7.57;4.87;;;5.40;99.90;;;;;;5083269;28;20318;-75
2021/04/27 03:08:33;;;;;;;8.57;5.13;;;5.40;99.90;;;;;;5082162;28;20197;-76
2021/04/27 03:11:00;;;;;;;8.57;4.60;;;5.40;99.90;;;;;;5083484;28;20220;-77
2021/04/27 03:13:27;;;;;;;7.07;4.97;;;5.40;99.90;;;;;;5083711;28;20254;-76
2021/04/27 03:15:53;;;;;;;7.63;4.40;;;5.50;99.90;;;;;;5082746;28;20613;-74
2021/04/27 03:18:20;;;;;;;7.17;4.97;;;5.50;99.90;;;;;;5083645;28;20197;-75
2021/04/27 03:20:46;;;;;;;7.17;4.70;;;5.50;99.90;;;;;;5083303;28;20853;-75
2021/04/27 03:23:13;;;;;;;8.53;5.00;;;5.50;99.90;;;;;;5083177;28;20612;-75
2021/04/27 03:25:40;;;;;;;7.60;5.10;;;5.50;99.90;;;;;;5083568;28;20233;-75
2021/04/27 03:28:09;;;;;;;9.67;4.97;;;5.50;99.90;;;;;;5083311;28;20209;-76
2021/04/27 03:30:36;;;;;;;6.87;4.63;;;5.50;99.90;;;;;;5082995;28;20204;-75
2021/04/27 03:33:02;;;;;;;7.97;5.40;;;5.50;99.90;;;;;;5082964;28;20224;-75
2021/04/27 03:35:28;;;;;;;9.83;5.40;;;5.50;99.90;;;;;;5082976;28;20220;-74
2021/04/27 03:37:55;;;;;;;6.33;4.93;;;5.50;99.90;;;;;;5082837;28;20246;-73
2021/04/27 03:40:22;;;;;;;6.73;4.83;;;5.60;99.90;;;;;;5083440;28;20858;-74
2021/04/27 03:42:48;;;;;;;5.43;4.63;;;5.60;99.90;;;;;;5082963;28;20221;-77
2021/04/27 03:45:17;;;;;;;9.43;5.13;;;5.60;99.90;;;;;;5093094;28;20211;-77
2021/04/27 03:47:44;;;;;;;6.93;4.70;;;5.60;99.90;;;;;;5103057;28;20203;-76
2021/04/27 03:50:15;;;;;;;10.03;5.07;;;5.60;99.90;;;;;;5103996;28;20290;-74
2021/04/27 03:52:41;;;;;;;6.87;5.00;;;5.60;99.90;;;;;;5102363;28;20203;-76
2021/04/27 03:55:08;;;;;;;9.87;4.50;;;5.60;99.90;;;;;;5083005;28;20248;-74
2021/04/27 03:57:34;;;;;;;6.70;4.90;;;5.60;99.90;;;;;;5082068;28;20338;-75
2021/04/27 04:00:01;;;;;;;8.70;5.10;;;5.60;99.90;;;;;;5081603;28;20201;-76
2021/04/27 04:02:28;;;;;;;6.60;4.97;;;5.60;99.90;;;;;;5082115;28;20204;-75
2021/04/27 04:04:54;;;;;;;6.53;4.73;;;5.60;99.90;;;;;;5082126;28;20201;-77
2021/04/27 04:07:21;;;;;;;10.20;4.70;;;5.60;99.90;;;;;;5081876;28;20212;-76
2021/04/27 04:09:47;;;;;;;7.30;4.57;;;5.60;99.90;;;;;;5082006;28;20200;-75
2021/04/27 04:12:13;;;;;;;9.10;5.80;;;5.60;99.90;;;;;;5082270;28;20220;-74
2021/04/27 04:14:39;;;;;;;7.17;5.03;;;5.60;99.90;;;;;;5081828;28;20200;-76
2021/04/27 04:17:06;;;;;;;8.43;4.77;;;5.60;99.90;;;;;;5081710;28;20258;-76
2021/04/27 04:19:34;;;;;;;14.27;6.10;;;5.60;99.90;;;;;;5081775;28;20214;-76
2021/04/27 04:22:00;;;;;;;8.30;5.40;;;5.60;99.90;;;;;;5082637;28;20266;-76
2021/04/27 04:24:26;;;;;;;6.23;5.03;;;5.60;99.90;;;;;;5081713;28;20625;-76
2021/04/27 04:26:53;;;;;;;7.83;5.33;;;5.70;99.90;;;;;;5081047;28;20505;-77
2021/04/27 04:29:19;;;;;;;8.27;5.30;;;5.70;99.90;;;;;;5081868;28;20219;-76
2021/04/27 04:31:46;;;;;;;8.37;5.03;;;5.70;99.90;;;;;;5081670;28;20204;-77
2021/04/27 04:34:12;;;;;;;9.63;5.10;;;5.70;99.90;;;;;;5082035;28;20212;-77
2021/04/27 04:36:39;;;;;;;7.13;6.20;;;5.70;99.90;;;;;;5081970;28;20693;-75
2021/04/27 04:39:05;;;;;;;7.87;5.40;;;5.70;99.90;;;;;;5081983;28;20209;-74
2021/04/27 04:41:32;;;;;;;8.13;5.63;;;5.70;99.90;;;;;;5093725;28;20215;-75
2021/04/27 04:43:58;;;;;;;8.53;5.33;;;5.70;99.90;;;;;;5102112;28;20295;-74
2021/04/27 04:46:24;;;;;;;5.40;4.77;;;5.80;99.90;;;;;;5091656;28;20612;-75
2021/04/27 04:48:50;;;;;;;7.47;4.73;;;5.80;99.90;;;;;;5081143;28;20282;-77
2021/04/27 04:51:17;;;;;;;8.80;4.77;;;5.80;99.90;;;;;;5081403;28;20205;-76
2021/04/27 04:53:45;;;;;;;6.93;5.00;;;5.90;99.90;;;;;;5087502;28;20862;-77
2021/04/27 04:56:11;;;;;;;8.67;5.07;;;5.90;99.90;;;;;;5101584;28;20246;-76
2021/04/27 04:58:37;;;;;;;10.47;5.43;;;5.90;99.90;;;;;;5102562;28;20196;-76
2021/04/27 05:01:03;;;;;;;8.50;5.40;;;5.90;99.90;;;;;;5101909;28;20269;-76
2021/04/27 05:03:30;;;;;;;6.93;4.67;;;6.00;99.90;;;;;;5086135;28;20212;-75
2021/04/27 05:05:56;;;;;;;7.73;5.13;;;6.00;99.90;;;;;;5081790;28;20208;-75
2021/04/27 05:08:24;;;;;;;8.27;5.20;;;6.00;99.90;;;;;;5080597;28;20213;-75
2021/04/27 05:10:51;;;;;;;6.87;5.03;;;6.00;99.90;;;;;;5084948;28;20601;-76
2021/04/27 05:13:18;;;;;;;7.97;4.80;;;6.00;99.90;;;;;;5085933;28;20196;-76
2021/04/27 05:15:44;;;;;;;6.33;4.97;;;6.10;99.90;;;;;;5084706;28;20583;-76
2021/04/27 05:18:10;;;;;;;8.73;5.00;;;6.10;99.90;;;;;;5085586;28;20287;-77
2021/04/27 05:20:37;;;;;;;8.03;6.00;;;6.20;99.90;;;;;;5085123;28;20811;-77
2021/04/27 05:23:04;;;;;;;7.40;4.93;;;6.20;99.90;;;;;;5084746;28;20551;-76
2021/04/27 05:25:31;;;;;;;6.03;4.67;;;6.20;99.90;;;;;;5085425;28;20200;-75
2021/04/27 05:27:58;;;;;;;6.60;4.67;;;6.30;99.90;;;;;;5084856;28;20273;-75
2021/04/27 05:30:25;;;;;;;7.20;5.00;;;6.30;99.90;;;;;;5084460;28;20209;-76
2021/04/27 05:32:51;;;;;;;8.20;4.80;;;6.40;99.90;;;;;;5085178;28;20216;-74
2021/04/27 05:35:18;;;;;;;5.30;4.80;;;6.40;99.90;;;;;;5085438;28;20269;-74
2021/04/27 05:37:44;;;;;;;7.10;4.80;;;6.50;99.90;;;;;;5084510;28;20208;-77
2021/04/27 05:40:12;;;;;;;7.17;5.27;;;6.60;99.90;;;;;;5085629;28;20223;-77
2021/04/27 05:42:38;;;;;;;8.13;4.53;;;6.60;99.90;;;;;;5084814;28;20224;-77
2021/04/27 05:45:07;;;;;;;7.70;4.90;;;6.70;99.90;;;;;;5084809;28;20695;-76
2021/04/27 05:47:33;;;;;;;9.23;5.17;;;6.70;99.90;;;;;;5084806;28;20678;-76
2021/04/27 05:49:59;;;;;;;5.73;4.83;;;6.80;99.90;;;;;;5085345;28;20204;-76
2021/04/27 05:52:25;;;;;;;6.87;4.60;;;6.90;99.90;;;;;;5084706;28;20627;-75
2021/04/27 05:54:52;;;;;;;7.90;4.53;;;7.00;99.90;;;;;;5085177;28;20251;-76
2021/04/27 05:57:18;;;;;;;7.40;4.63;;;7.00;99.90;;;;;;5083860;28;20300;-76
2021/04/27 05:59:45;;;;;;;6.70;4.47;;;7.10;99.90;;;;;;5084995;28;20606;-75
2021/04/27 06:02:12;;;;;;;6.07;5.00;;;7.20;99.90;;;;;;5085303;28;20624;-74
2021/04/27 06:04:38;;;;;;;9.07;5.13;;;7.30;99.90;;;;;;5084299;28;20200;-75
2021/04/27 06:07:07;;;;;;;6.63;4.57;;;7.40;99.90;;;;;;5085188;28;20200;-75
2021/04/27 06:09:34;;;;;;;5.57;4.37;;;7.40;99.90;;;;;;5084383;28;20207;-74
2021/04/27 06:12:00;;;;;;;6.90;4.70;;;7.70;99.90;;;;;;5085071;28;20216;-74
2021/04/27 06:14:26;;;;;;;5.83;5.17;;;7.70;99.90;;;;;;5085269;28;20204;-75
2021/04/27 06:16:53;;;;;;;8.70;5.07;;;7.80;99.90;;;;;;5084303;28;20224;-75
2021/04/27 06:19:20;;;;;;;6.20;4.97;;;7.70;99.90;;;;;;5084006;28;20208;-75
2021/04/27 06:21:47;;;;;;;9.57;4.87;;;7.70;99.90;;;;;;5084179;28;20208;-76
2021/04/27 06:24:14;;;;;;;5.23;4.40;;;7.80;99.90;;;;;;5084299;28;20234;-76
2021/04/27 06:26:40;;;;;;;8.43;4.70;;;7.90;99.90;;;;;;5084058;28;20219;-76
2021/04/27 06:29:07;;;;;;;7.50;4.50;;;8.10;99.90;;;;;;5083988;28;20215;-77
2021/04/27 06:31:34;;;;;;;6.30;5.20;;;8.40;99.90;;;;;;5084072;28;20201;-75
2021/04/27 06:34:00;;;;;;;7.10;4.63;;;8.50;99.90;;;;;;5083808;28;20203;-77
2021/04/27 06:36:28;;;;;;;6.80;4.80;;;8.80;99.90;;;;;;5083941;28;20656;-75
2021/04/27 06:38:54;;;;;;;7.93;5.70;;;9.00;99.90;;;;;;5084162;28;20207;-75
2021/04/27 06:41:20;;;;;;;5.60;4.27;;;9.40;99.90;;;;;;5083200;28;20312;-77
2021/04/27 06:43:47;;;;;;;7.07;4.53;;;9.80;99.90;;;;;;5083586;28;20251;-76
2021/04/27 06:46:13;;;;;;;8.87;6.00;;;10.10;99.90;;;;;;5084321;28;20200;-76
2021/04/27 06:48:40;;;;;;;6.30;5.10;;;10.40;99.90;;;;;;5082768;28;20204;-77
2021/04/27 06:51:08;;;;;;;7.67;5.07;;;10.80;99.90;;;;;;5090188;28;20306;-75
2021/04/27 06:53:36;;;;;;;7.37;5.13;;;11.10;99.90;;;;;;5102746;28;20928;-75
2021/04/27 06:56:03;;;;;;;6.10;4.60;;;11.50;99.90;;;;;;5102575;28;20242;-75
2021/04/27 06:58:31;;;;;;;5.77;4.33;;;11.90;99.90;;;;;;5103854;28;20217;-76
2021/04/27 07:00:57;;;;;;;5.40;4.87;;;12.30;99.90;;;;;;5102856;28;20663;-77
2021/04/27 07:03:24;;;;;;;8.70;5.20;;;12.70;99.90;;;;;;5087434;28;20211;-75
2021/04/27 07:05:50;;;;;;;6.10;4.07;;;12.80;99.90;;;;;;5083878;28;20231;-74
2021/04/27 07:08:16;;;;;;;7.97;4.50;;;12.90;99.90;;;;;;5083369;28;20204;-75
2021/04/27 07:10:43;;;;;;;5.40;4.37;;;13.10;99.90;;;;;;5083557;28;20201;-76
2021/04/27 07:13:10;;;;;;;5.27;4.50;;;13.20;99.90;;;;;;5083724;28;20201;-76
2021/04/27 07:15:36;;;;;;;7.63;4.70;;;13.00;99.90;;;;;;5082094;28;20854;-76
2021/04/27 07:18:02;;;;;;;5.17;4.63;;;12.90;99.90;;;;;;5083395;28;20205;-76
2021/04/27 07:20:29;;;;;;;6.73;4.47;;;13.10;99.90;;;;;;5089598;28;20582;-75
2021/04/27 07:22:55;;;;;;;5.97;4.20;;;13.40;99.90;;;;;;5102535;28;20646;-77
2021/04/27 07:25:21;;;;;;;6.07;4.17;;;13.30;99.90;;;;;;5099043;28;20203;-76
2021/04/27 07:27:48;;;;;;;10.07;4.97;;;13.30;99.90;;;;;;5043735;28;20605;-76
2021/04/27 07:30:16;;;;;;;9.40;4.67;;;13.30;99.90;;;;;;5081990;28;20824;-76
2021/04/27 07:32:42;;;;;;;7.27;4.20;;;13.50;99.90;;;;;;5082272;28;20208;-77
2021/04/27 07:35:10;;;;;;;6.90;4.20;;;13.40;99.90;;;;;;5082984;28;20207;-75
2021/04/27 07:37:37;;;;;;;6.00;4.50;;;13.60;99.90;;;;;;5081588;28;20818;-76
2021/04/27 07:40:05;;;;;;;5.27;4.37;;;13.70;99.90;;;;;;5082284;28;20208;-78
2021/04/27 07:42:31;;;;;;;5.00;4.10;;;13.90;99.90;;;;;;5081961;28;20208;-77
2021/04/27 07:44:58;;;;;;;6.57;4.07;;;13.90;99.90;;;;;;5039590;28;20940;-75
2021/04/27 07:47:25;;;;;;;4.57;3.73;;;14.00;99.90;;;;;;5083411;28;20200;-75
2021/04/27 07:49:51;;;;;;;6.17;4.50;;;14.30;99.90;;;;;;5099090;28;20273;-75
2021/04/27 07:52:17;;;;;;;5.87;4.67;;;14.30;99.90;;;;;;5103427;28;20199;-76
2021/04/27 07:54:45;;;;;;;5.07;4.30;;;14.40;99.90;;;;;;5091934;28;20286;-74
2021/04/27 07:57:11;;;;;;;6.53;4.10;;;14.30;99.90;;;;;;5082092;28;20228;-74
2021/04/27 07:59:38;;;;;;;5.90;4.87;;;14.50;99.90;;;;;;5081770;28;20204;-74
2021/04/27 08:02:05;;;;;;;7.27;4.90;;;14.30;99.90;;;;;;5082594;28;20200;-74
2021/04/27 08:04:31;;;;;;;8.57;4.83;;;14.60;99.90;;;;;;5081908;28;20204;-74
2021/04/27 08:06:57;;;;;;;4.90;4.17;;;14.60;99.90;;;;;;5089705;28;20245;-75
2021/04/27 08:09:23;;;;;;;4.87;4.30;;;14.80;99.90;;;;;;5093220;28;20204;-74
2021/04/27 08:11:50;;;;;;;6.30;4.60;;;15.20;99.90;;;;;;5081082;28;20200;-75
2021/04/27 08:14:18;;;;;;;5.20;4.47;;;15.20;99.90;;;;;;5082468;28;20204;-75
2021/04/27 08:16:44;;;;;;;8.90;5.10;;;15.10;99.90;;;;;;5082121;28;20939;-75
2021/04/27 08:19:11;;;;;;;4.78;4.38;;;15.30;99.90;;;;;;5082255;28;20211;-75
2021/04/27 08:21:38;;;;;;;6.17;4.50;;;15.50;99.90;;;;;;5082000;28;20201;-75
2021/04/27 08:24:05;;;;;;;6.38;4.80;;;15.60;99.90;;;;;;5082397;28;20200;-75
2021/04/27 08:26:31;;;;;;;4.57;4.05;;;15.70;99.90;;;;;;5081223;28;20293;-75
2021/04/27 08:28:57;;;;;;;5.10;4.60;;;15.70;99.90;;;;;;5082313;28;20204;-75
2021/04/27 08:31:24;;;;;;;7.47;4.57;;;15.60;99.90;;;;;;5081983;28;20200;-74
2021/04/27 08:33:50;;;;;;;5.70;4.53;;;15.60;99.90;;;;;;5081472;28;20624;-74
2021/04/27 08:36:18;;;;;;;5.88;4.13;;;16.00;99.90;;;;;;5081159;28;20216;-75
2021/04/27 08:38:44;;;;;;;6.47;4.78;;;16.20;99.90;;;;;;5081802;28;20279;-75
2021/04/27 08:41:10;;;;;;;7.82;4.05;;;16.50;99.90;;;;;;5081844;28;20341;-76
2021/04/27 08:43:37;;;;;;;6.40;4.40;;;16.60;99.90;;;;;;5081974;28;20220;-75
2021/04/27 09:14:57;;;;;;;6.95;4.82;;;16.00;99.90;;;;;;4846062;29;20611;-75
2021/04/27 09:17:26;;;;;;;5.47;4.45;;;16.20;99.90;;;;;;4957416;28;20239;-74
2021/04/27 09:19:53;;;;;;;6.07;4.87;;;16.10;99.90;;;;;;4979681;28;20395;-74
2021/04/27 09:22:22;;;;;;;6.63;4.68;;;15.90;99.90;;;;;;5081252;28;20203;-75
2021/04/27 09:24:50;;;;;;;6.47;4.87;;;15.60;99.90;;;;;;5081406;28;20212;-75
2021/04/27 09:27:26;;;;;;;8.25;5.43;;;15.50;99.90;;;;;;5080783;28;20200;-74
2021/04/27 09:29:52;;;;;;;7.43;5.00;;;15.40;99.90;;;;;;5081413;28;20201;-76
2021/04/27 09:32:31;;;;;;;7.67;4.53;;;15.50;99.90;;;;;;5080653;28;21046;-75
2021/04/27 09:34:58;;;;;;;5.85;4.85;;;15.70;99.90;;;;;;5081200;28;20565;-77
2021/04/27 09:37:24;;;;;;;6.40;4.93;;;15.80;99.90;;;;;;5080539;28;20231;-76
2021/04/27 09:39:51;;;;;;;13.43;5.10;;;16.00;99.90;;;;;;5080595;28;20251;-77
2021/04/27 09:42:19;;;;;;;5.53;4.97;;;16.10;99.90;;;;;;5080437;28;20270;-75
2021/04/27 09:44:49;;;;;;;6.35;5.03;;;16.30;99.90;;;;;;5081438;28;20204;-76
2021/04/27 09:47:22;;;;;;;7.75;4.72;;;16.40;99.90;;;;;;5081326;28;20208;-76
2021/04/27 09:49:58;;;;;;;5.13;4.57;;;16.40;99.90;;;;;;5080698;28;20189;-75
2021/04/27 09:52:26;;;;;;;6.65;4.97;;;16.40;99.90;;;;;;5080859;28;20670;-75
2021/04/27 09:55:06;;;;;;;8.82;5.03;;;16.50;99.90;;;;;;5081018;28;20209;-74
2021/04/27 09:57:34;;;;;;;5.85;5.10;;;16.40;99.90;;;;;;5082503;28;20228;-75
2021/04/27 10:00:21;;;;;;;4.38;3.97;;;16.70;99.90;;;;;;5085713;28;20200;-75
2021/04/27 10:02:48;;;;;;;8.70;5.10;;;17.20;99.90;;;;;;5085112;28;20208;-75
2021/04/27 10:05:16;;;;;;;6.10;4.70;;;17.40;99.90;;;;;;5084024;28;20204;-74
2021/04/27 10:07:42;;;;;;;6.10;5.07;;;17.50;99.90;;;;;;5099606;28;20215;-76
2021/04/27 10:10:11;;;;;;;7.05;4.90;;;17.50;99.90;;;;;;5105579;28;20901;-75
2021/04/27 10:12:39;;;;;;;9.60;5.57;;;17.80;99.90;;;;;;5104235;28;20214;-75
2021/04/27 10:15:06;;;;;;;6.00;5.28;;;17.70;99.90;;;;;;5100887;28;20204;-76
2021/04/27 10:17:34;;;;;;;6.20;4.72;;;17.60;99.90;;;;;;5094430;28;20639;-75
2021/04/27 10:20:01;;;;;;;5.10;4.60;;;17.70;99.90;;;;;;5105184;28;20496;-76
2021/04/27 10:22:28;;;;;;;5.43;4.90;;;17.90;99.90;;;;;;5105255;28;20195;-75
2021/04/27 10:24:56;;;;;;;5.68;4.97;;;18.20;99.90;;;;;;5090885;28;20209;-74
2021/04/27 10:27:25;;;;;;;6.57;4.85;;;18.20;99.90;;;;;;5083878;28;20640;-75
2021/04/27 10:29:57;;;;;;;6.18;5.57;;;18.30;99.90;;;;;;5084447;28;20266;-75
2021/04/27 10:32:25;;;;;;;6.95;5.32;;;18.40;99.90;;;;;;5083461;28;20616;-75
2021/04/27 10:35:09;;;;;;;6.70;4.45;;;18.30;99.90;;;;;;5084150;28;20197;-75
2021/04/27 10:37:59;;;;;;;7.45;5.07;;;18.50;99.90;;;;;;5083788;28;20223;-76
2021/04/27 10:40:58;;;;;;;5.88;5.28;;;18.30;99.90;;;;;;5082758;28;20208;-78
2021/04/27 10:43:39;;;;;;;5.43;4.80;;;18.10;99.90;;;;;;5082428;28;20224;-76
2021/04/27 10:46:26;;;;;;;7.50;5.38;;;18.20;99.90;;;;;;5088957;28;20202;-76
2021/04/27 10:48:52;;;;;;;9.75;5.03;;;18.00;99.90;;;;;;5102978;28;20196;-77
2021/04/27 10:51:36;;;;;;;7.30;4.60;;;18.10;99.90;;;;;;5103602;28;20203;-76
2021/04/27 10:54:09;;;;;;;5.78;4.90;;;18.40;99.90;;;;;;5102002;28;20188;-76
2021/04/27 10:56:38;;;;;;;7.65;5.18;;;18.80;99.90;;;;;;5083017;28;20224;-76
2021/04/27 10:59:07;;;;;;;6.32;5.28;;;18.70;99.90;;;;;;5082895;28;20258;-76
2021/04/27 11:01:34;;;;;;;8.35;5.80;;;18.80;99.90;;;;;;5081577;28;20192;-76
2021/04/27 11:04:01;;;;;;;7.30;5.85;;;18.80;99.90;;;;;;5096859;28;20202;-75
2021/04/27 11:06:28;;;;;;;7.00;4.93;;;18.60;99.90;;;;;;5103582;28;20204;-76
2021/04/27 11:08:56;;;;;;;7.32;4.82;;;18.70;99.90;;;;;;5099833;28;20203;-76
2021/04/27 11:11:27;;;;;;;7.00;4.70;;;18.90;99.90;;;;;;5083178;28;20250;-77
2021/04/27 11:14:13;;;;;;;7.25;4.80;;;19.10;99.90;;;;;;5088976;28;20184;-76
2021/04/27 11:16:40;;;;;;;5.60;4.70;;;19.60;99.90;;;;;;5102032;28;20211;-76
2021/04/27 11:19:12;;;;;;;10.15;5.60;;;19.40;99.90;;;;;;5103731;28;20212;-77
2021/04/27 11:21:38;;;;;;;7.07;4.97;;;18.90;99.90;;;;;;5101936;28;20203;-76
2021/04/27 11:24:08;;;;;;;6.13;5.00;;;19.10;99.90;;;;;;5103209;28;20265;-76
2021/04/27 11:26:44;;;;;;;7.05;4.50;;;19.10;99.90;;;;;;5087859;28;20208;-77
2021/04/27 11:29:28;;;;;;;4.10;3.70;;;19.40;99.90;;;;;;5081574;28;20189;-75
2021/04/27 11:32:06;;;;;;;6.28;5.13;;;19.60;99.90;;;;;;5081389;28;20200;-76
2021/04/27 11:35:15;;;;;;;7.68;5.53;;;19.60;99.90;;;;;;5081887;28;20245;-76
2021/04/27 11:37:45;;;;;;;6.63;5.35;;;19.50;99.90;;;;;;5057627;28;20236;-76
2021/04/27 11:40:21;;;;;;;6.53;5.65;;;19.40;99.90;;;;;;5083309;28;20230;-77
2021/04/27 11:42:53;;;;;;;10.00;5.18;;;19.40;99.90;;;;;;5082567;28;20216;-76
2021/04/27 11:45:19;;;;;;;6.60;4.95;;;18.90;99.90;;;;;;5082552;28;20631;-76
2021/04/27 11:47:47;;;;;;;5.28;4.78;;;19.20;99.90;;;;;;5083068;28;20207;-76
2021/04/27 11:50:15;;;;;;;8.02;4.95;;;19.40;99.90;;;;;;5082474;28;20311;-77
2021/04/27 11:52:49;;;;;;;5.90;5.38;;;19.50;99.90;;;;;;5082261;28;20200;-76
2021/04/27 11:55:28;;;;;;;6.13;5.50;;;19.70;99.90;;;;;;5082643;28;20657;-77
2021/04/27 11:57:58;;;;;;;5.90;5.30;;;19.90;99.90;;;;;;5082048;28;20236;-76
2021/04/27 12:00:30;;;;;;;5.32;4.80;;;19.80;99.90;;;;;;5082996;28;20204;-76
2021/04/27 12:02:57;;;;;;;5.57;4.90;;;19.90;99.90;;;;;;5083182;28;20205;-76
2021/04/27 12:05:24;;;;;;;5.70;5.10;;;20.00;99.90;;;;;;5081985;28;20212;-76
2021/04/27 12:07:50;;;;;;;6.80;5.45;;;19.50;99.90;;;;;;5082534;28;20806;-77
2021/04/27 12:10:16;;;;;;;7.28;5.13;;;19.10;99.90;;;;;;5081624;28;20212;-77
2021/04/27 12:12:47;;;;;;;7.00;4.88;;;19.40;99.90;;;;;;5083258;28;20204;-76
2021/04/27 12:15:14;;;;;;;6.07;5.32;;;19.60;99.90;;;;;;5082828;28;20207;-76
2021/04/27 12:17:41;;;;;;;6.70;6.10;;;19.60;99.90;;;;;;5081731;28;20648;-76
2021/04/27 12:20:11;;;;;;;6.63;5.32;;;19.60;99.90;;;;;;5095828;28;20208;-76
2021/04/27 12:22:42;;;;;;;6.93;5.35;;;19.40;99.90;;;;;;5102383;28;20195;-76
2021/04/27 12:25:25;;;;;;;8.05;6.20;;;19.60;99.90;;;;;;5102264;28;20207;-76
2021/04/27 12:27:53;;;;;;;6.13;4.65;;;19.60;99.90;;;;;;5085409;28;20197;-76
2021/04/27 12:30:24;;;;;;;5.18;4.63;;;19.80;99.90;;;;;;5082683;28;20208;-77
2021/04/27 12:33:04;;;;;;;5.63;5.00;;;19.90;99.90;;;;;;5081675;28;20202;-77
2021/04/27 12:35:32;;;;;;;6.03;4.85;;;20.00;99.90;;;;;;5081899;28;20204;-78
2021/04/27 12:38:02;;;;;;;5.53;4.85;;;20.20;99.90;;;;;;5082913;28;20643;-76
2021/04/27 12:40:32;;;;;;;5.45;4.93;;;20.10;99.90;;;;;;5096566;28;20203;-76
2021/04/27 12:43:03;;;;;;;5.55;4.30;;;19.90;99.90;;;;;;5101302;28;20234;-78
2021/04/27 12:45:43;;;;;;;6.18;4.70;;;19.80;99.90;;;;;;5101425;28;20202;-77
2021/04/27 12:48:10;;;;;;;6.85;4.90;;;19.90;99.90;;;;;;5102701;28;20278;-77
2021/04/27 12:50:49;;;;;;;4.97;4.45;;;19.80;99.90;;;;;;5102215;28;20261;-77
2021/04/27 12:53:16;;;;;;;6.40;5.15;;;19.80;99.90;;;;;;5101211;28;20869;-76
2021/04/27 12:55:50;;;;;;;5.72;5.00;;;19.80;99.90;;;;;;5102009;28;20222;-77
2021/04/27 12:58:18;;;;;;;7.13;4.97;;;19.60;99.90;;;;;;5101611;28;20235;-77
2021/04/27 13:00:57;;;;;;;5.95;5.35;;;19.30;99.90;;;;;;5087616;28;20656;-76
2021/04/27 13:03:25;;;;;;;6.45;4.97;;;19.30;99.90;;;;;;5081944;28;20350;-76
2021/04/27 13:05:53;;;;;;;6.57;5.15;;;19.10;99.90;;;;;;5081887;28;20212;-77
2021/04/27 13:08:23;;;;;;;7.30;4.93;;;19.00;99.90;;;;;;5081618;28;20287;-76
2021/04/27 13:10:49;;;;;;;6.18;4.63;;;18.90;99.90;;;;;;5081429;28;20664;-77
2021/04/27 13:13:18;;;;;;;5.75;5.10;;;18.80;99.90;;;;;;5085548;28;20196;-76
2021/04/27 13:15:50;;;;;;;5.25;4.50;;;18.90;99.90;;;;;;5101595;28;20518;-77
2021/04/27 13:18:22;;;;;;;6.55;4.75;;;18.60;99.90;;;;;;5095065;28;20204;-76
2021/04/27 13:20:51;;;;;;;6.60;5.25;;;18.80;99.90;;;;;;5080619;28;20220;-76
2021/04/27 13:23:19;;;;;;;5.10;4.57;;;18.90;99.90;;;;;;5081428;28;20513;-76
2021/04/27 13:25:48;;;;;;;5.07;4.57;;;19.00;99.90;;;;;;5081518;28;20598;-76
2021/04/27 13:28:20;;;;;;;5.93;4.90;;;19.00;99.90;;;;;;5080944;28;20201;-76